| DS18B20 | SHTC3 | PZEM-004T | WiFi | ||||||||
|---|---|---|---|---|---|---|---|---|---|---|---|
| ID | Date d/m/Y & Time | data1 สูง | data2 ต่ำ | data3 นอก | temp pcb | hum pcb | Volt | Amp | Watt | rssi | Time |
| 10556 | 08/08/2026 01:39:04 | 30.2  | 30.4  | 27.7  | 31.1  | 68.6  | 227.8  | 0.04  | 4.4  | -77  | 01:39 |
| 10555 | 08/08/2026 01:34:20 | 30.2  | 30.4  | 28.0  | 31.2  | 68.6  | 224.8  | 0.04  | 4.4  | -74  | 01:34 |
| 10554 | 08/08/2026 01:29:36 | 30.2  | 30.4  | 28.0  | 31.1  | 68.5  | 225.6  | 0.04  | 4.4  | -74  | 01:29 |
| 10553 | 08/08/2026 01:24:50 | 30.2  | 30.4  | 27.9  | 31.2  | 68.6  | 224.9  | 0.04  | 4.4  | -77  | 01:24 |
| 10552 | 08/08/2026 01:20:05 | 30.3  | 30.4  | 27.7  | 31.3  | 68.6  | 227.6  | 0.04  | 4.4  | -77  | 01:20 |
| 10551 | 08/08/2026 01:15:19 | 30.3  | 30.4  | 27.9  | 31.4  | 68.6  | 224.2  | 0.04  | 4.4  | -77  | 01:15 |
| 10550 | 08/08/2026 01:10:35 | 30.3  | 30.5  | 27.9  | 31.4  | 68.6  | 225.8  | 0.04  | 4.4  | -76  | 01:10 |
| 10549 | 08/08/2026 01:05:51 | 30.4  | 30.5  | 27.9  | 31.2  | 68.6  | 223.0  | 0.04  | 4.4  | -76  | 01:05 |
| 10548 | 08/08/2026 01:01:04 | 30.4  | 30.5  | 28.0  | 31.1  | 68.5  | 225.2  | 0.04  | 4.4  | -75  | 01:01 |
| 10547 | 08/08/2026 00:56:20 | 30.4  | 30.6  | 28.2  | 31.5  | 68.6  | 223.8  | 0.04  | 4.4  | -77  | 00:56 |
| 10546 | 08/08/2026 00:51:36 | 30.4  | 30.6  | 28.2  | 31.4  | 68.7  | 225.3  | 0.04  | 4.4  | -76  | 00:51 |
| 10545 | 08/08/2026 00:46:52 | 30.4  | 30.6  | 28.2  | 31.2  | 68.5  | 222.7  | 0.04  | 4.4  | -75  | 00:46 |
| 10544 | 08/08/2026 00:42:08 | 30.4  | 30.6  | 27.9  | 31.4  | 68.5  | 225.5  | 0.04  | 4.4  | -76  | 00:42 |
| 10543 | 08/08/2026 00:37:25 | 30.4  | 30.6  | 27.9  | 31.5  | 68.5  | 224.7  | 0.04  | 4.4  | -76  | 00:37 |
| 10542 | 08/08/2026 00:32:42 | 30.5  | 30.7  | 27.9  | 31.5  | 68.6  | 225.8  | 0.04  | 4.4  | -76  | 00:32 |
| 10541 | 08/08/2026 00:27:58 | 30.5  | 30.7  | 28.0  | 31.4  | 68.5  | 223.5  | 0.04  | 4.4  | -76  | 00:27 |
| 10540 | 08/08/2026 00:23:15 | 30.6  | 30.7  | 27.9  | 31.6  | 68.6  | 226.4  | 0.04  | 4.4  | -76  | 00:23 |
| 10539 | 08/08/2026 00:18:32 | 30.6  | 30.8  | 27.9  | 31.6  | 68.5  | 225.9  | 0.04  | 4.4  | -75  | 00:18 |
| 10538 | 08/08/2026 00:13:49 | 30.6  | 30.8  | 28.0  | 31.6  | 68.5  | 224.1  | 0.04  | 4.4  | -77  | 00:13 |
| 10537 | 08/08/2026 00:09:04 | 30.6  | 30.8  | 27.9  | 31.7  | 68.5  | 225.8  | 0.04  | 4.4  | -76  | 00:09 |
| 10536 | 08/08/2026 00:04:21 | 30.6  | 30.8  | 27.9  | 31.7  | 68.6  | 226.0  | 0.04  | 4.4  | -76  | 00:04 |
| 10535 | 07/08/2026 23:59:37 | 30.7  | 30.8  | 28.0  | 31.7  | 68.4  | 223.8  | 0.04  | 4.4  | -75  | 23:59 |
| 10534 | 07/08/2026 23:54:54 | 30.7  | 30.8  | 28.2  | 31.7  | 68.4  | 225.6  | 0.04  | 4.4  | -77  | 23:54 |
| 10533 | 07/08/2026 23:50:11 | 30.8  | 30.9  | 28.2  | 31.8  | 68.5  | 225.8  | 0.04  | 4.4  | -77  | 23:50 |